Time;durP1;ratioP1;P1;durP2;ratioP2;P2;SDS_P1;SDS_P2;PMS_P1;PMS_P2;Temp;Humidity;BMP_temperature;BMP_pressure;BME280_temperature;BME280_humidity;BME280_pressure;Samples;Min_cycle;Max_cycle;Signal;HPM_P1;HPM_P2
2023/07/27 00:00:50;;;;;;;1.40;1.30;;;24.90;59.90;;;;;;5021577;28;20445;-65
2023/07/27 00:03:18;;;;;;;2.50;2.17;;;24.90;59.90;;;;;;5016293;28;20547;-65
2023/07/27 00:05:47;;;;;;;1.80;1.70;;;24.90;59.80;;;;;;5022347;28;20855;-67
2023/07/27 00:08:15;;;;;;;2.00;1.77;;;24.90;59.90;;;;;;5027041;28;20996;-66
2023/07/27 00:10:43;;;;;;;1.63;1.53;;;24.90;59.80;;;;;;5022237;28;20445;-66
2023/07/27 00:13:11;;;;;;;1.70;1.60;;;24.80;59.80;;;;;;5014445;28;20454;-66
2023/07/27 00:15:41;;;;;;;2.17;1.77;;;24.80;59.80;;;;;;5010636;28;20469;-65
2023/07/27 00:18:09;;;;;;;1.83;1.73;;;24.80;59.70;;;;;;5008963;28;20477;-67
2023/07/27 00:20:37;;;;;;;2.07;1.87;;;24.80;59.70;;;;;;5013523;28;20517;-66
2023/07/27 00:23:05;;;;;;;2.00;1.87;;;24.80;59.80;;;;;;5015587;28;20500;-66
2023/07/27 00:25:33;;;;;;;2.03;1.47;;;24.80;59.80;;;;;;5013661;28;20537;-65
2023/07/27 00:28:02;;;;;;;1.60;1.50;;;24.80;59.80;;;;;;5020040;28;20856;-65
2023/07/27 00:30:30;;;;;;;1.47;1.37;;;24.80;59.70;;;;;;5004934;28;20452;-66
2023/07/27 00:33:00;;;;;;;1.50;1.40;;;24.80;59.80;;;;;;5000126;28;20926;-66
2023/07/27 00:35:28;;;;;;;1.90;1.43;;;24.80;59.70;;;;;;5021369;28;20467;-66
2023/07/27 00:37:56;;;;;;;1.60;1.50;;;24.80;59.70;;;;;;5021447;28;20442;-68
2023/07/27 00:40:25;;;;;;;2.17;1.97;;;24.70;59.70;;;;;;4999930;28;20858;-65
2023/07/27 00:42:53;;;;;;;2.07;1.60;;;24.80;59.70;;;;;;5024860;28;20463;-65
2023/07/27 00:45:21;;;;;;;1.90;1.80;;;24.70;59.70;;;;;;5012045;28;20477;-65
2023/07/27 00:47:49;;;;;;;2.03;1.83;;;24.70;59.60;;;;;;5018387;28;20464;-66
2023/07/27 00:50:19;;;;;;;1.87;1.77;;;24.70;59.60;;;;;;5017193;28;20981;-65
2023/07/27 00:52:47;;;;;;;1.60;1.50;;;24.70;59.50;;;;;;5012131;28;20511;-66
2023/07/27 00:55:15;;;;;;;2.03;1.60;;;24.70;59.50;;;;;;4996344;28;20461;-66
2023/07/27 00:57:44;;;;;;;2.03;1.87;;;24.70;59.60;;;;;;5012069;28;20467;-70
2023/07/27 01:00:14;;;;;;;2.10;2.00;;;24.70;59.50;;;;;;5008382;28;20462;-65
2023/07/27 01:02:43;;;;;;;1.97;1.87;;;24.70;59.60;;;;;;5003071;28;20471;-65
2023/07/27 01:05:11;;;;;;;1.60;1.50;;;24.70;59.60;;;;;;5011326;28;20480;-66
2023/07/27 01:07:41;;;;;;;1.80;1.70;;;24.70;59.50;;;;;;5015254;28;20968;-66
2023/07/27 01:10:11;;;;;;;1.60;1.50;;;24.70;59.50;;;;;;5020366;28;20463;-65
2023/07/27 01:12:46;;;;;;;1.73;1.60;;;24.70;59.60;;;;;;5009558;28;20525;-65
2023/07/27 01:15:18;;;;;;;1.97;1.87;;;24.70;59.50;;;;;;4996034;28;20515;-65
2023/07/27 01:17:54;;;;;;;2.53;2.03;;;24.70;59.60;;;;;;5004267;28;20464;-67
2023/07/27 01:20:28;;;;;;;1.80;1.70;;;24.60;59.50;;;;;;5015565;28;20495;-65
2023/07/27 01:23:42;;;;;;;1.47;1.37;;;24.70;59.50;;;;;;5022045;28;21172;-68
2023/07/27 01:26:49;;;;;;;1.37;1.27;;;24.70;59.50;;;;;;4985484;28;20489;-65
2023/07/27 01:29:41;;;;;;;1.80;1.70;;;24.60;59.50;;;;;;5003925;28;20554;-66
2023/07/27 01:32:13;;;;;;;1.40;1.30;;;24.60;59.50;;;;;;5007809;28;21006;-66
2023/07/27 01:34:46;;;;;;;2.10;1.40;;;24.60;59.50;;;;;;5001111;28;20912;-68
2023/07/27 01:37:17;;;;;;;2.03;1.70;;;24.60;59.40;;;;;;5009314;28;20956;-67
2023/07/27 01:39:50;;;;;;;1.73;1.60;;;24.60;59.40;;;;;;5004087;28;20500;-65
2023/07/27 01:42:20;;;;;;;2.00;1.63;;;24.60;59.40;;;;;;5008684;28;20825;-67
2023/07/27 01:44:49;;;;;;;2.10;1.93;;;24.60;59.40;;;;;;5017017;28;20480;-66
2023/07/27 01:47:20;;;;;;;1.67;1.57;;;24.60;59.50;;;;;;5005827;28;20808;-67
2023/07/27 01:49:50;;;;;;;1.80;1.70;;;24.60;59.40;;;;;;5003266;28;20546;-66
2023/07/27 01:52:20;;;;;;;1.87;1.77;;;24.60;59.50;;;;;;5018697;28;20447;-66
2023/07/27 01:54:50;;;;;;;1.90;1.80;;;24.60;59.40;;;;;;4998153;28;20552;-66
2023/07/27 01:57:19;;;;;;;2.00;1.63;;;24.60;59.40;;;;;;5022778;28;20444;-66
2023/07/27 01:59:48;;;;;;;4.20;2.13;;;24.60;59.40;;;;;;5000094;28;20466;-68
2023/07/27 02:02:16;;;;;;;2.00;1.90;;;24.60;59.40;;;;;;5001873;28;20464;-66
2023/07/27 02:04:46;;;;;;;1.80;1.63;;;24.60;59.40;;;;;;5015625;28;20475;-65
2023/07/27 02:07:18;;;;;;;1.40;1.30;;;24.60;59.50;;;;;;5008302;28;20949;-65
2023/07/27 02:09:46;;;;;;;1.50;1.40;;;24.60;59.50;;;;;;5012148;28;21168;-67
2023/07/27 02:12:24;;;;;;;1.77;1.67;;;24.60;59.40;;;;;;5020301;28;20435;-65
2023/07/27 02:15:00;;;;;;;1.93;1.37;;;24.60;59.40;;;;;;5021060;28;20468;-65
2023/07/27 02:17:35;;;;;;;1.43;1.33;;;24.60;59.50;;;;;;5020940;28;20440;-66
2023/07/27 02:20:10;;;;;;;1.80;1.70;;;24.50;59.50;;;;;;5025015;28;20456;-66
2023/07/27 02:22:41;;;;;;;1.37;1.10;;;24.50;59.50;;;;;;5018125;28;20459;-66
2023/07/27 02:25:10;;;;;;;1.77;1.67;;;24.50;59.50;;;;;;5026960;28;20501;-65
2023/07/27 02:27:38;;;;;;;1.77;1.67;;;24.50;59.40;;;;;;4986425;28;20475;-66
2023/07/27 02:30:08;;;;;;;1.73;1.63;;;24.50;59.40;;;;;;5004793;28;20461;-70
2023/07/27 02:32:36;;;;;;;1.70;1.60;;;24.50;59.50;;;;;;4996456;28;20468;-65
2023/07/27 02:35:07;;;;;;;1.67;1.57;;;24.50;59.50;;;;;;5014073;28;20457;-65
2023/07/27 02:37:35;;;;;;;1.73;1.63;;;24.50;59.50;;;;;;5011060;28;20518;-65
2023/07/27 02:40:03;;;;;;;1.70;1.60;;;24.40;59.50;;;;;;5009083;28;20524;-66
2023/07/27 02:42:33;;;;;;;1.27;1.17;;;24.40;59.40;;;;;;5013962;28;20462;-67
2023/07/27 02:45:01;;;;;;;1.40;1.30;;;24.40;59.50;;;;;;4990505;28;20958;-66
2023/07/27 02:47:35;;;;;;;1.90;1.80;;;24.40;59.60;;;;;;4996854;28;20466;-66
2023/07/27 02:50:04;;;;;;;1.87;1.40;;;24.40;59.50;;;;;;5022671;28;20458;-66
2023/07/27 02:52:43;;;;;;;1.50;1.40;;;24.40;59.50;;;;;;5008281;28;20524;-66
2023/07/27 02:55:12;;;;;;;1.93;1.83;;;24.40;59.50;;;;;;5007928;28;20460;-65
2023/07/27 02:57:40;;;;;;;1.60;1.50;;;24.40;59.40;;;;;;5017359;28;20502;-66
2023/07/27 03:00:09;;;;;;;2.00;1.80;;;24.40;59.40;;;;;;5000941;28;20995;-65
2023/07/27 03:02:37;;;;;;;1.60;1.50;;;24.40;59.50;;;;;;4998510;28;20574;-67
2023/07/27 03:05:07;;;;;;;1.37;1.20;;;24.40;59.40;;;;;;5022444;28;20462;-66
2023/07/27 03:07:36;;;;;;;1.87;1.37;;;24.40;59.50;;;;;;4994870;28;20511;-65
2023/07/27 03:10:06;;;;;;;1.50;1.40;;;24.40;59.50;;;;;;5024631;28;20460;-66
2023/07/27 03:12:35;;;;;;;1.93;1.83;;;24.40;59.40;;;;;;5000553;28;20476;-66
2023/07/27 03:15:03;;;;;;;1.83;1.73;;;24.40;59.40;;;;;;5020965;28;20467;-66
2023/07/27 03:17:32;;;;;;;1.60;1.50;;;24.40;59.40;;;;;;4984619;28;20980;-66
2023/07/27 03:20:00;;;;;;;2.03;1.93;;;24.40;59.40;;;;;;5020382;28;20466;-66
2023/07/27 03:22:28;;;;;;;2.10;2.00;;;24.40;59.30;;;;;;4993672;28;21439;-66
2023/07/27 03:24:56;;;;;;;3.50;1.30;;;24.40;59.40;;;;;;5009332;28;20996;-68
2023/07/27 03:27:26;;;;;;;1.57;1.47;;;24.40;59.40;;;;;;5012405;28;20458;-66
2023/07/27 03:29:54;;;;;;;1.90;1.80;;;24.30;59.40;;;;;;5018423;28;20467;-65
2023/07/27 03:32:22;;;;;;;1.70;1.60;;;24.30;59.40;;;;;;5017544;28;20463;-66
2023/07/27 03:34:51;;;;;;;2.00;1.80;;;24.40;59.40;;;;;;5020289;28;20451;-65
2023/07/27 03:37:19;;;;;;;2.13;1.60;;;24.30;59.40;;;;;;4993116;28;20508;-65
2023/07/27 03:39:47;;;;;;;1.70;1.60;;;24.30;59.40;;;;;;5001744;28;20490;-66
2023/07/27 03:42:15;;;;;;;1.70;1.60;;;24.30;59.40;;;;;;4992458;28;20496;-65
2023/07/27 03:44:45;;;;;;;1.20;1.20;;;24.30;59.40;;;;;;4975056;28;20457;-66
2023/07/27 03:47:13;;;;;;;2.10;1.60;;;24.30;59.30;;;;;;4993320;28;20491;-65
2023/07/27 03:49:42;;;;;;;1.30;1.20;;;24.30;59.30;;;;;;4993438;28;20473;-67
2023/07/27 03:52:11;;;;;;;1.70;1.60;;;24.20;59.30;;;;;;4980642;28;20466;-65
2023/07/27 03:54:39;;;;;;;1.50;1.40;;;24.20;59.40;;;;;;4992820;28;20474;-66
2023/07/27 03:57:08;;;;;;;1.63;1.43;;;24.20;59.50;;;;;;4975393;28;20571;-66
2023/07/27 03:59:36;;;;;;;1.60;1.50;;;24.20;59.30;;;;;;4974966;28;20474;-66
2023/07/27 04:02:06;;;;;;;1.60;1.50;;;24.20;59.30;;;;;;4994533;28;20459;-65
2023/07/27 04:04:34;;;;;;;1.77;1.67;;;24.20;59.30;;;;;;4998323;28;20939;-65
2023/07/27 04:07:02;;;;;;;1.70;1.60;;;24.20;59.30;;;;;;4984920;28;21045;-66
2023/07/27 04:09:30;;;;;;;1.30;1.20;;;24.20;59.40;;;;;;4992197;28;20475;-67
2023/07/27 04:11:59;;;;;;;2.40;2.20;;;24.20;59.40;;;;;;4998238;28;20480;-67
2023/07/27 04:14:27;;;;;;;1.40;1.30;;;24.20;59.30;;;;;;4997436;28;21033;-67
2023/07/27 04:16:55;;;;;;;2.33;1.70;;;24.20;59.30;;;;;;4972588;28;20468;-66
2023/07/27 04:19:26;;;;;;;4.20;2.00;;;24.20;59.30;;;;;;4998701;28;20458;-66
2023/07/27 04:21:54;;;;;;;1.43;1.33;;;24.20;59.30;;;;;;4995695;28;20824;-69
2023/07/27 04:24:22;;;;;;;1.60;1.50;;;24.20;59.40;;;;;;4998770;28;20560;-66
2023/07/27 04:26:50;;;;;;;1.37;1.27;;;24.20;59.40;;;;;;4974380;28;20563;-68
2023/07/27 04:29:19;;;;;;;1.50;1.40;;;24.20;59.50;;;;;;4977002;28;20466;-67
2023/07/27 04:31:47;;;;;;;1.93;1.70;;;24.20;59.50;;;;;;4983934;28;20965;-66
2023/07/27 04:34:15;;;;;;;1.73;1.63;;;24.20;59.50;;;;;;4987427;28;20468;-66
2023/07/27 04:36:47;;;;;;;1.60;1.40;;;24.20;59.50;;;;;;4996276;28;20565;-66
2023/07/27 04:39:15;;;;;;;1.93;1.80;;;24.20;59.50;;;;;;5002316;28;20498;-68
2023/07/27 04:41:44;;;;;;;1.80;1.70;;;24.30;59.50;;;;;;5010841;28;20893;-66
2023/07/27 04:44:12;;;;;;;2.07;1.87;;;24.30;59.50;;;;;;5009875;28;20464;-66
2023/07/27 04:46:40;;;;;;;2.07;1.80;;;24.30;59.50;;;;;;4984151;28;20481;-69
2023/07/27 04:49:09;;;;;;;1.57;1.40;;;24.30;59.50;;;;;;5003252;28;20559;-68
2023/07/27 04:51:37;;;;;;;1.40;1.30;;;24.30;59.50;;;;;;5016711;28;20462;-66
2023/07/27 04:54:06;;;;;;;2.73;1.33;;;24.30;59.50;;;;;;5014415;28;20507;-68
2023/07/27 04:56:35;;;;;;;1.60;1.50;;;24.30;59.50;;;;;;5013609;28;20952;-66
2023/07/27 04:59:03;;;;;;;1.60;1.50;;;24.30;59.50;;;;;;5009918;28;20463;-66
2023/07/27 05:01:31;;;;;;;1.83;1.30;;;24.30;59.50;;;;;;5006182;28;20484;-68
2023/07/27 05:04:00;;;;;;;1.93;1.10;;;24.30;59.50;;;;;;5013055;28;20549;-66
2023/07/27 05:06:28;;;;;;;1.60;1.50;;;24.30;59.50;;;;;;5011425;28;20476;-67
2023/07/27 05:08:56;;;;;;;1.40;1.30;;;24.30;59.50;;;;;;5006140;28;20470;-68
2023/07/27 05:11:26;;;;;;;1.50;1.40;;;24.30;59.50;;;;;;5008419;28;20581;-66
2023/07/27 05:13:54;;;;;;;1.53;1.43;;;24.30;59.60;;;;;;5007443;28;20932;-66
2023/07/27 05:16:22;;;;;;;1.40;1.30;;;24.30;59.70;;;;;;5008567;28;20545;-67
2023/07/27 05:18:52;;;;;;;1.73;1.63;;;24.30;59.80;;;;;;5011057;28;20463;-66
2023/07/27 05:21:20;;;;;;;2.50;1.57;;;24.30;59.80;;;;;;5004172;28;20494;-65
2023/07/27 05:23:49;;;;;;;2.20;1.80;;;24.40;59.90;;;;;;5013912;28;20976;-69
2023/07/27 05:26:17;;;;;;;1.50;1.40;;;24.40;60.00;;;;;;5005506;28;20527;-67
2023/07/27 05:28:47;;;;;;;2.20;1.73;;;24.40;60.00;;;;;;4989295;28;20614;-65
2023/07/27 05:31:15;;;;;;;2.50;1.50;;;24.40;60.10;;;;;;5008191;28;20509;-70
2023/07/27 05:33:43;;;;;;;4.17;1.73;;;24.40;60.10;;;;;;5006627;28;20469;-65
2023/07/27 05:36:12;;;;;;;4.80;1.50;;;24.40;60.20;;;;;;5010688;28;20455;-66
2023/07/27 05:38:41;;;;;;;1.70;1.60;;;24.40;60.20;;;;;;5007147;28;20512;-65
2023/07/27 05:41:09;;;;;;;1.93;1.83;;;24.40;60.30;;;;;;4984673;28;21313;-67
2023/07/27 05:43:38;;;;;;;3.27;2.00;;;24.40;60.30;;;;;;4987001;28;20508;-66
2023/07/27 05:46:07;;;;;;;1.73;1.60;;;24.40;60.30;;;;;;4991556;28;20511;-67
2023/07/27 05:48:35;;;;;;;1.90;1.70;;;24.40;60.40;;;;;;4990199;28;20508;-66
2023/07/27 05:51:04;;;;;;;2.00;1.80;;;24.40;60.40;;;;;;5000277;28;20526;-67
2023/07/27 05:53:32;;;;;;;1.93;1.80;;;24.40;60.50;;;;;;4988275;28;20848;-68
2023/07/27 05:56:00;;;;;;;2.00;1.87;;;24.40;60.60;;;;;;4991480;28;20534;-65
2023/07/27 05:58:28;;;;;;;2.13;1.70;;;24.40;60.70;;;;;;4993766;28;21045;-69
2023/07/27 06:01:00;;;;;;;2.43;1.67;;;24.50;60.60;;;;;;4996324;28;21054;-70
2023/07/27 06:03:31;;;;;;;1.60;1.50;;;24.50;60.70;;;;;;4992754;28;20466;-68
2023/07/27 06:05:59;;;;;;;2.37;2.17;;;24.50;60.70;;;;;;4992334;28;20465;-67
2023/07/27 06:08:28;;;;;;;2.50;1.80;;;24.50;60.70;;;;;;4987034;28;20539;-66
2023/07/27 06:11:06;;;;;;;2.20;2.00;;;24.50;60.70;;;;;;4993030;28;20505;-68
2023/07/27 06:13:34;;;;;;;1.57;1.47;;;24.50;60.70;;;;;;4996256;28;20446;-66
2023/07/27 06:16:03;;;;;;;3.17;1.87;;;24.50;60.70;;;;;;4988334;28;20469;-66
2023/07/27 06:18:33;;;;;;;2.77;1.50;;;24.50;60.70;;;;;;4994456;28;20865;-66
2023/07/27 06:21:01;;;;;;;2.03;1.90;;;24.60;60.70;;;;;;4994042;28;20528;-77
2023/07/27 06:23:29;;;;;;;1.93;1.50;;;24.60;60.80;;;;;;4984030;28;20971;-76
2023/07/27 06:25:58;;;;;;;2.30;1.80;;;24.60;61.00;;;;;;4987208;28;20458;-72
2023/07/27 06:28:26;;;;;;;1.80;1.70;;;24.60;61.10;;;;;;4988555;28;20518;-74
2023/07/27 06:30:54;;;;;;;1.80;1.43;;;24.60;61.20;;;;;;4989348;28;20927;-74
2023/07/27 06:33:22;;;;;;;2.07;1.80;;;24.60;61.20;;;;;;4988652;28;20468;-74
2023/07/27 06:35:52;;;;;;;1.23;1.13;;;24.60;61.10;;;;;;4989902;28;20551;-76
2023/07/27 06:38:20;;;;;;;1.53;1.43;;;24.70;61.00;;;;;;4992252;28;20577;-73
2023/07/27 06:40:51;;;;;;;1.97;1.77;;;24.70;61.00;;;;;;5012092;28;20955;-73
2023/07/27 06:43:19;;;;;;;2.80;1.97;;;24.70;61.00;;;;;;5001097;28;21052;-73
2023/07/27 06:45:48;;;;;;;4.00;1.80;;;24.70;60.80;;;;;;5007454;28;20813;-75
2023/07/27 06:48:16;;;;;;;1.70;1.53;;;24.70;60.80;;;;;;5008223;28;20960;-75
2023/07/27 06:50:44;;;;;;;6.63;1.97;;;24.80;60.80;;;;;;5014206;28;20456;-75
2023/07/27 06:53:15;;;;;;;2.33;1.63;;;24.80;60.80;;;;;;5003095;28;20485;-75
2023/07/27 06:55:43;;;;;;;2.83;1.70;;;24.80;60.80;;;;;;5014445;28;20450;-76
2023/07/27 06:58:13;;;;;;;3.33;1.60;;;24.80;60.90;;;;;;5004771;28;21065;-76
2023/07/27 07:00:41;;;;;;;2.53;1.80;;;24.80;61.00;;;;;;5011517;28;20508;-75
2023/07/27 07:03:09;;;;;;;7.20;1.73;;;24.90;61.00;;;;;;5008092;28;20564;-76
2023/07/27 07:05:38;;;;;;;3.10;1.60;;;24.90;61.00;;;;;;5013203;28;20456;-75
2023/07/27 07:08:06;;;;;;;2.77;1.63;;;24.90;61.00;;;;;;5011167;28;20485;-76
2023/07/27 07:10:36;;;;;;;2.57;1.63;;;24.90;61.10;;;;;;5006855;28;20487;-76
2023/07/27 07:13:04;;;;;;;2.13;1.50;;;25.00;61.00;;;;;;4990499;28;20875;-77
2023/07/27 07:15:32;;;;;;;1.83;1.73;;;25.00;61.00;;;;;;5009141;28;20473;-76
2023/07/27 07:18:01;;;;;;;3.87;1.70;;;25.00;61.00;;;;;;5005679;28;20525;-76
2023/07/27 07:20:29;;;;;;;2.10;1.53;;;25.00;61.00;;;;;;5011118;28;20509;-76
2023/07/27 07:22:57;;;;;;;2.23;1.97;;;25.00;61.00;;;;;;5005501;28;20464;-76
2023/07/27 07:25:25;;;;;;;2.37;1.87;;;25.10;61.00;;;;;;5004661;28;20475;-76
2023/07/27 07:27:55;;;;;;;2.33;1.80;;;25.10;61.00;;;;;;5002960;28;20830;-75
2023/07/27 07:30:23;;;;;;;1.20;1.20;;;25.10;60.90;;;;;;5004834;28;20572;-76
2023/07/27 07:32:52;;;;;;;3.13;1.60;;;25.10;60.90;;;;;;5010801;28;20473;-75
2023/07/27 07:35:20;;;;;;;1.60;1.50;;;25.10;60.90;;;;;;4996577;28;20500;-76
2023/07/27 07:37:49;;;;;;;2.80;1.80;;;25.20;60.90;;;;;;5000794;28;20856;-75
2023/07/27 07:40:18;;;;;;;1.93;1.63;;;25.20;60.80;;;;;;4989312;28;20495;-76
2023/07/27 07:42:47;;;;;;;2.30;1.70;;;25.20;60.80;;;;;;4987938;28;20528;-75
2023/07/27 07:45:18;;;;;;;1.47;1.37;;;25.20;60.80;;;;;;4989288;28;20497;-75
2023/07/27 07:47:46;;;;;;;4.03;1.83;;;25.20;60.80;;;;;;4968122;28;20486;-76
2023/07/27 07:50:14;;;;;;;1.43;1.33;;;25.20;60.70;;;;;;4984073;28;20962;-75
2023/07/27 07:52:43;;;;;;;1.80;1.57;;;25.30;60.80;;;;;;4989229;28;20504;-75
2023/07/27 07:55:11;;;;;;;3.03;1.37;;;25.30;60.70;;;;;;4985898;28;20471;-71
2023/07/27 07:57:40;;;;;;;2.47;1.83;;;25.30;60.80;;;;;;4984201;28;20950;-69
2023/07/27 08:00:09;;;;;;;3.37;1.83;;;25.30;60.70;;;;;;4987757;28;20472;-66
2023/07/27 08:02:45;;;;;;;2.20;1.40;;;25.30;60.50;;;;;;4994263;28;20997;-66
2023/07/27 08:05:13;;;;;;;1.53;1.43;;;25.20;60.50;;;;;;5001286;28;20471;-66
2023/07/27 08:07:41;;;;;;;1.63;1.53;;;25.20;60.40;;;;;;5001036;28;20456;-67
2023/07/27 08:10:10;;;;;;;2.40;1.70;;;25.20;60.40;;;;;;4993576;28;20527;-65
2023/07/27 08:12:38;;;;;;;1.93;1.83;;;25.20;60.40;;;;;;4994699;28;20990;-65
2023/07/27 08:15:08;;;;;;;2.97;1.60;;;25.20;60.50;;;;;;4998043;28;20490;-66
2023/07/27 08:17:36;;;;;;;1.40;1.30;;;25.20;60.70;;;;;;4990313;28;20480;-65
2023/07/27 08:20:09;;;;;;;140.80;75.13;;;25.20;60.90;;;;;;5000740;28;20476;-66
2023/07/27 08:22:38;;;;;;;7.70;5.43;;;25.20;61.00;;;;;;4976913;28;20821;-65
2023/07/27 08:25:07;;;;;;;13.67;6.40;;;25.20;60.90;;;;;;4996831;28;20463;-65
2023/07/27 08:27:50;;;;;;;6.47;3.83;;;25.20;61.00;;;;;;4987489;28;20470;-65
2023/07/27 08:30:19;;;;;;;6.87;3.60;;;25.20;60.90;;;;;;4989161;28;20473;-66
2023/07/27 08:32:48;;;;;;;6.20;3.03;;;25.20;61.00;;;;;;4990594;28;20560;-66
2023/07/27 08:35:17;;;;;;;6.00;2.60;;;25.20;60.90;;;;;;4988595;28;20468;-66
2023/07/27 08:37:45;;;;;;;2.83;2.13;;;25.20;60.90;;;;;;4986830;28;20462;-65
2023/07/27 08:40:14;;;;;;;4.20;2.80;;;25.20;60.90;;;;;;5007188;28;20552;-66
2023/07/27 08:42:44;;;;;;;2.40;2.20;;;25.20;60.90;;;;;;5008035;28;20472;-65
2023/07/27 08:45:14;;;;;;;3.60;2.83;;;25.30;61.00;;;;;;5007069;28;20522;-66
2023/07/27 08:47:43;;;;;;;9.23;5.40;;;25.30;61.10;;;;;;5006346;28;20540;-67
2023/07/27 08:50:14;;;;;;;28.37;22.30;;;25.30;61.00;;;;;;5008754;28;20469;-66
2023/07/27 08:52:43;;;;;;;40.47;24.13;;;25.30;61.20;;;;;;5007073;28;20930;-66
2023/07/27 08:55:12;;;;;;;20.03;12.73;;;25.30;61.30;;;;;;5007364;28;20529;-66
2023/07/27 08:57:40;;;;;;;17.73;11.27;;;25.30;61.00;;;;;;5007867;28;20470;-70
2023/07/27 09:00:10;;;;;;;20.80;10.87;;;25.30;60.90;;;;;;5006838;28;20862;-71
2023/07/27 09:02:39;;;;;;;16.53;9.17;;;25.40;61.00;;;;;;5014550;28;20465;-74
2023/07/27 09:05:10;;;;;;;16.77;10.83;;;25.40;60.90;;;;;;5013341;28;20464;-67
2023/07/27 09:07:38;;;;;;;14.83;7.20;;;25.40;60.80;;;;;;5020388;28;20457;-67
2023/07/27 09:10:10;;;;;;;11.50;6.47;;;25.40;60.70;;;;;;5016341;28;20486;-70
2023/07/27 09:12:41;;;;;;;7.87;5.87;;;25.40;60.70;;;;;;5008762;28;20517;-77
2023/07/27 09:15:13;;;;;;;11.63;5.70;;;25.40;61.10;;;;;;5008192;28;20458;-71
2023/07/27 09:17:41;;;;;;;8.70;5.07;;;25.40;60.70;;;;;;5001431;28;21040;-75
2023/07/27 09:20:12;;;;;;;11.40;4.90;;;25.40;60.80;;;;;;5002894;28;20476;-72
2023/07/27 09:22:40;;;;;;;7.57;4.40;;;25.50;60.70;;;;;;5010500;28;20466;-71
2023/07/27 09:25:10;;;;;;;6.50;4.10;;;25.50;60.80;;;;;;5011303;28;20454;-67
2023/07/27 09:27:42;;;;;;;5.77;3.90;;;25.50;60.80;;;;;;5010232;28;20464;-67
2023/07/27 09:30:13;;;;;;;13.13;5.27;;;25.50;60.90;;;;;;5015382;28;20504;-73
2023/07/27 09:32:41;;;;;;;7.13;4.30;;;25.50;60.90;;;;;;5009498;28;20457;-74
2023/07/27 09:35:14;;;;;;;5.93;4.30;;;25.50;60.90;;;;;;5015942;28;20197;-72
2023/07/27 09:37:44;;;;;;;8.30;4.30;;;25.50;60.80;;;;;;5008671;28;20455;-73
2023/07/27 09:40:16;;;;;;;4.63;3.67;;;25.50;60.80;;;;;;4994866;28;20490;-72
2023/07/27 09:42:45;;;;;;;4.27;3.70;;;25.60;60.80;;;;;;5015487;28;20939;-72
2023/07/27 09:45:14;;;;;;;6.77;4.07;;;25.60;60.80;;;;;;5012524;28;20559;-72
2023/07/27 09:47:43;;;;;;;5.70;3.40;;;25.70;60.70;;;;;;5014893;28;20815;-72
2023/07/27 09:50:11;;;;;;;5.10;4.40;;;25.70;60.70;;;;;;5017687;28;20831;-74
2023/07/27 09:52:40;;;;;;;3.97;3.27;;;25.70;60.70;;;;;;5017980;28;20435;-73
2023/07/27 09:55:08;;;;;;;4.77;3.33;;;25.70;60.70;;;;;;5011751;28;20549;-73
2023/07/27 09:57:41;;;;;;;7.80;3.77;;;25.70;60.80;;;;;;5010901;28;20442;-73
2023/07/27 10:00:10;;;;;;;5.90;3.10;;;25.70;60.60;;;;;;5007956;28;20455;-73
2023/07/27 10:02:42;;;;;;;4.40;3.40;;;25.80;60.60;;;;;;5014489;28;20501;-73
2023/07/27 10:05:10;;;;;;;6.20;4.30;;;25.80;60.60;;;;;;5000633;28;20613;-73
2023/07/27 10:07:39;;;;;;;5.53;3.40;;;25.80;60.60;;;;;;5012423;28;20480;-74
2023/07/27 10:10:35;;;;;;;4.20;3.50;;;25.90;60.50;;;;;;5013573;28;20468;-73
2023/07/27 10:13:10;;;;;;;5.40;3.30;;;25.90;60.60;;;;;;5013358;28;20469;-73
2023/07/27 10:15:43;;;;;;;5.07;4.17;;;25.90;60.50;;;;;;5006308;28;20948;-73
2023/07/27 10:18:15;;;;;;;5.17;3.10;;;26.00;60.50;;;;;;5013566;28;20460;-75
2023/07/27 10:20:43;;;;;;;6.40;3.33;;;26.00;60.30;;;;;;5018864;28;20936;-74
2023/07/27 10:23:17;;;;;;;5.17;3.50;;;26.00;60.30;;;;;;5014876;28;20458;-73
2023/07/27 10:26:02;;;;;;;6.00;3.60;;;26.10;60.30;;;;;;5015573;28;20455;-74
2023/07/27 10:28:33;;;;;;;2.90;2.70;;;26.10;60.30;;;;;;5016646;28;20826;-74
2023/07/27 10:31:25;;;;;;;6.07;3.80;;;26.10;60.50;;;;;;5018063;28;20474;-74
2023/07/27 10:33:58;;;;;;;8.07;6.33;;;26.10;60.60;;;;;;5013574;28;20467;-71
2023/07/27 10:36:57;;;;;;;10.10;5.70;;;26.10;60.60;;;;;;5019057;28;20454;-70
2023/07/27 10:39:30;;;;;;;5.13;4.00;;;26.10;60.90;;;;;;5017596;28;20505;-70
2023/07/27 10:42:03;;;;;;;6.73;3.40;;;26.10;61.10;;;;;;5012640;28;20795;-69
2023/07/27 10:44:53;;;;;;;4.60;3.73;;;26.10;60.80;;;;;;5019657;28;20463;-66
2023/07/27 10:47:23;;;;;;;3.17;2.27;;;26.00;60.80;;;;;;5020693;28;20942;-66
2023/07/27 10:49:53;;;;;;;5.40;2.70;;;26.00;60.60;;;;;;5014826;28;21036;-66
2023/07/27 10:52:23;;;;;;;3.40;3.10;;;26.00;60.60;;;;;;5021491;28;20514;-65
2023/07/27 10:54:53;;;;;;;3.13;2.83;;;26.00;60.60;;;;;;5000146;28;20490;-65
2023/07/27 10:57:22;;;;;;;3.50;2.80;;;25.90;60.50;;;;;;5020191;28;20524;-66
2023/07/27 10:59:52;;;;;;;5.70;2.93;;;25.90;60.60;;;;;;5009962;28;20464;-69
2023/07/27 11:02:22;;;;;;;3.53;2.73;;;25.90;60.50;;;;;;5009660;28;20463;-66
2023/07/27 11:04:51;;;;;;;3.77;2.60;;;25.90;60.70;;;;;;5017052;28;20479;-65
2023/07/27 11:07:28;;;;;;;6.23;3.10;;;25.90;60.60;;;;;;5012271;28;20464;-66
2023/07/27 11:09:57;;;;;;;4.50;3.10;;;25.90;60.70;;;;;;5009938;28;20484;-69
2023/07/27 11:12:26;;;;;;;2.87;2.67;;;25.90;60.60;;;;;;5011696;28;21022;-67
2023/07/27 11:15:17;;;;;;;5.30;3.20;;;25.80;60.70;;;;;;5009998;28;20463;-66
2023/07/27 11:17:46;;;;;;;3.47;3.17;;;25.90;60.80;;;;;;4996441;28;20861;-66
2023/07/27 11:20:17;;;;;;;5.37;2.90;;;25.90;60.80;;;;;;5019594;28;20459;-66
2023/07/27 11:22:46;;;;;;;2.83;2.53;;;25.90;60.90;;;;;;5013061;28;20456;-66
2023/07/27 11:25:15;;;;;;;2.73;2.53;;;25.90;60.90;;;;;;5001259;28;20492;-66
2023/07/27 11:27:43;;;;;;;3.93;2.77;;;25.90;60.90;;;;;;5005532;28;20472;-72
2023/07/27 11:30:17;;;;;;;3.67;2.30;;;25.90;60.80;;;;;;5005876;28;20480;-66
2023/07/27 11:32:57;;;;;;;3.57;2.73;;;25.90;60.40;;;;;;5006109;28;20546;-71
2023/07/27 11:35:25;;;;;;;3.50;2.53;;;25.90;60.10;;;;;;5006445;28;20468;-66
2023/07/27 11:37:54;;;;;;;2.83;2.63;;;25.90;60.30;;;;;;5010166;28;20454;-69
2023/07/27 11:40:23;;;;;;;3.50;2.80;;;25.90;60.40;;;;;;5002392;28;20467;-65
2023/07/27 11:42:52;;;;;;;2.60;2.07;;;25.90;60.30;;;;;;5002441;28;21261;-66
2023/07/27 11:45:22;;;;;;;2.63;2.43;;;25.90;60.30;;;;;;5002086;28;20517;-78
2023/07/27 11:47:52;;;;;;;4.00;3.43;;;25.90;60.50;;;;;;5010007;28;20473;-70
2023/07/27 11:50:21;;;;;;;7.13;2.60;;;25.80;60.70;;;;;;5009321;28;20487;-71
2023/07/27 11:52:57;;;;;;;6.63;4.97;;;25.90;60.70;;;;;;4983389;28;20482;-71
2023/07/27 11:55:25;;;;;;;4.97;3.30;;;25.90;61.10;;;;;;4999954;28;20466;-70
2023/07/27 11:57:54;;;;;;;3.40;3.00;;;25.90;61.30;;;;;;5005248;28;20464;-74
2023/07/27 12:00:23;;;;;;;3.30;2.90;;;25.90;61.10;;;;;;5003100;28;21071;-70
2023/07/27 12:02:52;;;;;;;6.17;3.20;;;25.90;61.30;;;;;;5006076;28;20459;-70
2023/07/27 12:05:25;;;;;;;6.53;3.07;;;25.90;61.10;;;;;;5005204;28;20475;-71
2023/07/27 12:07:56;;;;;;;4.67;2.60;;;25.90;61.30;;;;;;5006537;28;20599;-73
2023/07/27 12:10:27;;;;;;;5.03;2.37;;;25.90;61.40;;;;;;4999896;28;20524;-72
2023/07/27 12:12:59;;;;;;;3.20;2.90;;;25.90;61.40;;;;;;5008191;28;20455;-71
2023/07/27 12:15:33;;;;;;;3.73;3.40;;;25.90;61.30;;;;;;5010144;28;20455;-71
2023/07/27 12:18:03;;;;;;;4.80;3.10;;;25.90;61.30;;;;;;5006469;28;20454;-74
2023/07/27 12:20:33;;;;;;;4.33;3.27;;;26.00;61.30;;;;;;5007357;28;20551;-71
2023/07/27 12:23:04;;;;;;;3.00;2.80;;;26.00;61.20;;;;;;5016292;28;20452;-74
2023/07/27 12:25:35;;;;;;;3.90;2.90;;;26.00;61.40;;;;;;5021212;28;20526;-72
2023/07/27 12:28:08;;;;;;;4.20;2.87;;;26.00;61.50;;;;;;5005748;28;20459;-75
2023/07/27 12:30:40;;;;;;;3.70;2.77;;;26.00;61.40;;;;;;5004663;28;20507;-71
2023/07/27 12:33:11;;;;;;;2.83;2.57;;;26.00;61.40;;;;;;5011672;28;20985;-74
2023/07/27 12:35:39;;;;;;;4.10;3.00;;;26.00;61.40;;;;;;5012144;28;20475;-71
2023/07/27 12:38:08;;;;;;;3.80;3.00;;;26.00;61.60;;;;;;5009333;28;20866;-74
2023/07/27 12:40:39;;;;;;;4.87;2.40;;;26.00;61.50;;;;;;4992355;28;20588;-77
2023/07/27 12:43:10;;;;;;;3.40;2.77;;;26.10;61.40;;;;;;4989912;28;20453;-72
2023/07/27 12:45:40;;;;;;;3.00;2.40;;;26.10;61.30;;;;;;4989554;28;20468;-73
2023/07/27 12:48:08;;;;;;;7.13;2.83;;;26.10;61.30;;;;;;4993825;28;20534;-74
2023/07/27 12:50:36;;;;;;;2.73;2.30;;;26.20;61.50;;;;;;4996888;28;20479;-75
2023/07/27 12:53:04;;;;;;;3.93;2.83;;;26.20;61.20;;;;;;4995215;28;20456;-70
2023/07/27 12:55:32;;;;;;;4.83;3.30;;;26.30;61.30;;;;;;4994259;28;20463;-72
2023/07/27 12:58:01;;;;;;;2.40;2.20;;;26.30;61.10;;;;;;4990719;28;20461;-70
2023/07/27 13:00:29;;;;;;;3.30;2.33;;;26.30;61.20;;;;;;4988821;28;20473;-70